sensor_id;sensor_type;location;lat;lon;timestamp;temperature;humidity
27858;DHT22;16852;51.446;6.528;2023-02-15T00:00:28;6.90;99.90
27858;DHT22;16852;51.446;6.528;2023-02-15T00:02:29;6.80;99.90
27858;DHT22;16852;51.446;6.528;2023-02-15T00:04:29;6.90;99.90
27858;DHT22;16852;51.446;6.528;2023-02-15T00:06:46;6.80;99.90
27858;DHT22;16852;51.446;6.528;2023-02-15T00:08:47;6.90;99.90
27858;DHT22;16852;51.446;6.528;2023-02-15T00:10:48;6.90;99.90
27858;DHT22;16852;51.446;6.528;2023-02-15T00:12:48;6.80;99.90
27858;DHT22;16852;51.446;6.528;2023-02-15T00:14:49;6.80;99.90
27858;DHT22;16852;51.446;6.528;2023-02-15T00:16:51;6.80;99.90
27858;DHT22;16852;51.446;6.528;2023-02-15T00:18:52;6.80;99.90
27858;DHT22;16852;51.446;6.528;2023-02-15T00:20:53;6.80;99.90
27858;DHT22;16852;51.446;6.528;2023-02-15T00:22:54;6.80;99.90
27858;DHT22;16852;51.446;6.528;2023-02-15T00:24:54;6.80;99.90
27858;DHT22;16852;51.446;6.528;2023-02-15T00:26:55;6.60;99.90
27858;DHT22;16852;51.446;6.528;2023-02-15T00:28:56;6.70;99.90
27858;DHT22;16852;51.446;6.528;2023-02-15T00:31:12;6.60;99.90
27858;DHT22;16852;51.446;6.528;2023-02-15T00:33:12;6.70;99.90
27858;DHT22;16852;51.446;6.528;2023-02-15T00:35:13;6.60;99.90
27858;DHT22;16852;51.446;6.528;2023-02-15T00:37:13;6.60;99.90
27858;DHT22;16852;51.446;6.528;2023-02-15T00:39:15;6.60;99.90
27858;DHT22;16852;51.446;6.528;2023-02-15T00:41:16;6.60;99.90
27858;DHT22;16852;51.446;6.528;2023-02-15T00:43:17;6.50;99.90
27858;DHT22;16852;51.446;6.528;2023-02-15T00:45:17;6.60;99.90
27858;DHT22;16852;51.446;6.528;2023-02-15T00:47:18;6.50;99.90
27858;DHT22;16852;51.446;6.528;2023-02-15T00:49:18;6.50;99.90
27858;DHT22;16852;51.446;6.528;2023-02-15T00:51:19;6.50;99.90
27858;DHT22;16852;51.446;6.528;2023-02-15T00:53:21;6.50;99.90
27858;DHT22;16852;51.446;6.528;2023-02-15T00:55:21;6.50;99.90
27858;DHT22;16852;51.446;6.528;2023-02-15T00:57:22;6.40;99.90
27858;DHT22;16852;51.446;6.528;2023-02-15T00:59:22;6.40;99.90
27858;DHT22;16852;51.446;6.528;2023-02-15T01:01:23;6.40;99.90
27858;DHT22;16852;51.446;6.528;2023-02-15T01:03:24;6.40;99.90
27858;DHT22;16852;51.446;6.528;2023-02-15T01:05:24;6.40;99.90
27858;DHT22;16852;51.446;6.528;2023-02-15T01:07:25;6.40;99.90
27858;DHT22;16852;51.446;6.528;2023-02-15T01:09:25;6.40;99.90
27858;DHT22;16852;51.446;6.528;2023-02-15T01:11:26;6.30;99.90
27858;DHT22;16852;51.446;6.528;2023-02-15T01:13:26;6.40;99.90
27858;DHT22;16852;51.446;6.528;2023-02-15T01:15:27;6.40;99.90
27858;DHT22;16852;51.446;6.528;2023-02-15T01:17:28;6.40;99.90
27858;DHT22;16852;51.446;6.528;2023-02-15T01:19:29;6.40;99.90
27858;DHT22;16852;51.446;6.528;2023-02-15T01:21:29;6.30;99.90
27858;DHT22;16852;51.446;6.528;2023-02-15T01:23:30;6.30;99.90
27858;DHT22;16852;51.446;6.528;2023-02-15T01:25:30;6.20;99.90
27858;DHT22;16852;51.446;6.528;2023-02-15T01:27:31;6.30;99.90
27858;DHT22;16852;51.446;6.528;2023-02-15T01:29:31;6.20;99.90
27858;DHT22;16852;51.446;6.528;2023-02-15T01:31:32;6.20;99.90
27858;DHT22;16852;51.446;6.528;2023-02-15T01:33:33;6.20;99.90
27858;DHT22;16852;51.446;6.528;2023-02-15T01:35:34;6.20;99.90
27858;DHT22;16852;51.446;6.528;2023-02-15T01:37:36;6.20;99.90
27858;DHT22;16852;51.446;6.528;2023-02-15T01:39:37;6.10;99.90
27858;DHT22;16852;51.446;6.528;2023-02-15T01:41:37;6.10;99.90
27858;DHT22;16852;51.446;6.528;2023-02-15T01:43:43;6.20;99.90
27858;DHT22;16852;51.446;6.528;2023-02-15T01:45:47;6.20;99.90
27858;DHT22;16852;51.446;6.528;2023-02-15T01:47:59;6.10;99.90
27858;DHT22;16852;51.446;6.528;2023-02-15T01:50:10;6.00;99.90
27858;DHT22;16852;51.446;6.528;2023-02-15T01:52:13;6.00;99.90
27858;DHT22;16852;51.446;6.528;2023-02-15T01:54:20;6.00;99.90
27858;DHT22;16852;51.446;6.528;2023-02-15T01:56:27;6.00;99.90
27858;DHT22;16852;51.446;6.528;2023-02-15T01:58:30;6.00;99.90
27858;DHT22;16852;51.446;6.528;2023-02-15T02:00:33;5.90;99.90
27858;DHT22;16852;51.446;6.528;2023-02-15T02:02:34;5.90;99.90
27858;DHT22;16852;51.446;6.528;2023-02-15T02:04:41;5.90;99.90
27858;DHT22;16852;51.446;6.528;2023-02-15T02:06:46;5.90;99.90
27858;DHT22;16852;51.446;6.528;2023-02-15T02:08:48;5.80;99.90
27858;DHT22;16852;51.446;6.528;2023-02-15T02:10:49;5.80;99.90
27858;DHT22;16852;51.446;6.528;2023-02-15T02:12:53;5.80;99.90
27858;DHT22;16852;51.446;6.528;2023-02-15T02:14:55;5.80;99.90
27858;DHT22;16852;51.446;6.528;2023-02-15T02:21:39;5.70;99.90
27858;DHT22;16852;51.446;6.528;2023-02-15T02:24:23;5.70;99.90
27858;DHT22;16852;51.446;6.528;2023-02-15T02:31:52;5.70;99.90
27858;DHT22;16852;51.446;6.528;2023-02-15T02:39:12;5.60;99.90
27858;DHT22;16852;51.446;6.528;2023-02-15T02:41:26;5.60;99.90
27858;DHT22;16852;51.446;6.528;2023-02-15T02:43:41;5.50;99.90
27858;DHT22;16852;51.446;6.528;2023-02-15T02:45:55;5.50;99.90
27858;DHT22;16852;51.446;6.528;2023-02-15T02:48:03;5.50;99.90
27858;DHT22;16852;51.446;6.528;2023-02-15T02:50:08;5.50;99.90
27858;DHT22;16852;51.446;6.528;2023-02-15T02:54:34;5.50;99.90
27858;DHT22;16852;51.446;6.528;2023-02-15T02:56:47;5.50;99.90
27858;DHT22;16852;51.446;6.528;2023-02-15T02:58:55;5.40;99.90
27858;DHT22;16852;51.446;6.528;2023-02-15T03:03:26;5.40;99.90
27858;DHT22;16852;51.446;6.528;2023-02-15T03:05:29;5.40;99.90
27858;DHT22;16852;51.446;6.528;2023-02-15T03:07:31;5.40;99.90
27858;DHT22;16852;51.446;6.528;2023-02-15T03:09:45;5.40;99.90
27858;DHT22;16852;51.446;6.528;2023-02-15T03:11:49;5.40;99.90
27858;DHT22;16852;51.446;6.528;2023-02-15T03:13:50;5.40;99.90
27858;DHT22;16852;51.446;6.528;2023-02-15T03:15:51;5.40;99.90
27858;DHT22;16852;51.446;6.528;2023-02-15T03:18:11;5.40;99.90
27858;DHT22;16852;51.446;6.528;2023-02-15T03:20:22;5.40;99.90
27858;DHT22;16852;51.446;6.528;2023-02-15T03:22:31;5.40;99.90
27858;DHT22;16852;51.446;6.528;2023-02-15T03:24:40;5.40;99.90
27858;DHT22;16852;51.446;6.528;2023-02-15T03:26:45;5.40;99.90
27858;DHT22;16852;51.446;6.528;2023-02-15T03:28:49;5.40;99.90
27858;DHT22;16852;51.446;6.528;2023-02-15T03:30:53;5.40;99.90
27858;DHT22;16852;51.446;6.528;2023-02-15T03:32:56;5.40;99.90
27858;DHT22;16852;51.446;6.528;2023-02-15T03:34:59;5.40;99.90
27858;DHT22;16852;51.446;6.528;2023-02-15T03:41:40;5.40;99.90
27858;DHT22;16852;51.446;6.528;2023-02-15T03:43:48;5.40;99.90
27858;DHT22;16852;51.446;6.528;2023-02-15T03:46:00;5.40;99.90
27858;DHT22;16852;51.446;6.528;2023-02-15T03:48:03;5.30;99.90
27858;DHT22;16852;51.446;6.528;2023-02-15T03:50:18;5.40;99.90
27858;DHT22;16852;51.446;6.528;2023-02-15T03:52:38;5.40;99.90
27858;DHT22;16852;51.446;6.528;2023-02-15T03:54:39;5.30;99.90
27858;DHT22;16852;51.446;6.528;2023-02-15T03:56:44;5.40;99.90
27858;DHT22;16852;51.446;6.528;2023-02-15T03:59:05;5.30;99.90
27858;DHT22;16852;51.446;6.528;2023-02-15T04:01:40;5.30;99.90
27858;DHT22;16852;51.446;6.528;2023-02-15T04:04:07;5.30;99.90
27858;DHT22;16852;51.446;6.528;2023-02-15T04:06:09;5.40;99.90
27858;DHT22;16852;51.446;6.528;2023-02-15T04:08:10;5.30;99.90
27858;DHT22;16852;51.446;6.528;2023-02-15T04:10:11;5.30;99.90
27858;DHT22;16852;51.446;6.528;2023-02-15T04:12:30;5.30;99.90
27858;DHT22;16852;51.446;6.528;2023-02-15T04:14:31;5.30;99.90
27858;DHT22;16852;51.446;6.528;2023-02-15T04:16:50;5.30;99.90
27858;DHT22;16852;51.446;6.528;2023-02-15T04:18:51;5.30;99.90
27858;DHT22;16852;51.446;6.528;2023-02-15T04:21:11;5.30;99.90
27858;DHT22;16852;51.446;6.528;2023-02-15T04:23:30;5.30;99.90
27858;DHT22;16852;51.446;6.528;2023-02-15T04:25:50;5.20;99.90
27858;DHT22;16852;51.446;6.528;2023-02-15T04:27:52;5.30;99.90
27858;DHT22;16852;51.446;6.528;2023-02-15T04:29:53;5.30;99.90
27858;DHT22;16852;51.446;6.528;2023-02-15T04:31:55;5.30;99.90
27858;DHT22;16852;51.446;6.528;2023-02-15T04:33:56;5.30;99.90
27858;DHT22;16852;51.446;6.528;2023-02-15T04:35:57;5.20;99.90
27858;DHT22;16852;51.446;6.528;2023-02-15T04:37:57;5.30;99.90
27858;DHT22;16852;51.446;6.528;2023-02-15T04:39:58;5.20;99.90
27858;DHT22;16852;51.446;6.528;2023-02-15T04:41:58;5.20;99.90
27858;DHT22;16852;51.446;6.528;2023-02-15T04:43:59;5.20;99.90
27858;DHT22;16852;51.446;6.528;2023-02-15T04:46:00;5.20;99.90
27858;DHT22;16852;51.446;6.528;2023-02-15T04:48:01;5.20;99.90
27858;DHT22;16852;51.446;6.528;2023-02-15T04:50:02;5.10;99.90
27858;DHT22;16852;51.446;6.528;2023-02-15T04:52:03;5.10;99.90
27858;DHT22;16852;51.446;6.528;2023-02-15T04:54:04;5.10;99.90
27858;DHT22;16852;51.446;6.528;2023-02-15T04:56:04;5.10;99.90
27858;DHT22;16852;51.446;6.528;2023-02-15T04:58:05;5.10;99.90
27858;DHT22;16852;51.446;6.528;2023-02-15T05:00:06;5.10;99.90
27858;DHT22;16852;51.446;6.528;2023-02-15T05:02:07;5.10;99.90
27858;DHT22;16852;51.446;6.528;2023-02-15T05:04:09;5.00;99.90
27858;DHT22;16852;51.446;6.528;2023-02-15T05:06:09;5.00;99.90
27858;DHT22;16852;51.446;6.528;2023-02-15T05:08:10;5.00;99.90
27858;DHT22;16852;51.446;6.528;2023-02-15T05:10:10;5.00;99.90
27858;DHT22;16852;51.446;6.528;2023-02-15T05:12:11;4.90;99.90
27858;DHT22;16852;51.446;6.528;2023-02-15T05:14:12;4.90;99.90
27858;DHT22;16852;51.446;6.528;2023-02-15T05:16:12;4.90;99.90
27858;DHT22;16852;51.446;6.528;2023-02-15T05:18:13;4.90;99.90
27858;DHT22;16852;51.446;6.528;2023-02-15T05:20:14;4.80;99.90
27858;DHT22;16852;51.446;6.528;2023-02-15T05:22:14;4.80;99.90
27858;DHT22;16852;51.446;6.528;2023-02-15T05:24:15;4.80;99.90
27858;DHT22;16852;51.446;6.528;2023-02-15T05:26:34;4.80;99.90
27858;DHT22;16852;51.446;6.528;2023-02-15T05:28:54;4.70;99.90
27858;DHT22;16852;51.446;6.528;2023-02-15T05:33:07;4.70;99.90
27858;DHT22;16852;51.446;6.528;2023-02-15T05:35:11;4.70;99.90
27858;DHT22;16852;51.446;6.528;2023-02-15T05:37:13;4.60;99.90
27858;DHT22;16852;51.446;6.528;2023-02-15T05:39:14;4.70;99.90
27858;DHT22;16852;51.446;6.528;2023-02-15T05:41:14;4.70;99.90
27858;DHT22;16852;51.446;6.528;2023-02-15T05:43:15;4.70;99.90
27858;DHT22;16852;51.446;6.528;2023-02-15T05:45:16;4.60;99.90
27858;DHT22;16852;51.446;6.528;2023-02-15T05:47:16;4.70;99.90
27858;DHT22;16852;51.446;6.528;2023-02-15T05:49:17;4.60;99.90
27858;DHT22;16852;51.446;6.528;2023-02-15T05:51:17;4.70;99.90
27858;DHT22;16852;51.446;6.528;2023-02-15T05:53:18;4.70;99.90
27858;DHT22;16852;51.446;6.528;2023-02-15T05:55:19;4.60;99.90
27858;DHT22;16852;51.446;6.528;2023-02-15T05:57:19;4.70;99.90
27858;DHT22;16852;51.446;6.528;2023-02-15T05:59:20;4.70;99.90
27858;DHT22;16852;51.446;6.528;2023-02-15T06:01:21;4.70;99.90
27858;DHT22;16852;51.446;6.528;2023-02-15T06:03:23;4.70;99.90
27858;DHT22;16852;51.446;6.528;2023-02-15T06:05:26;4.60;99.90
27858;DHT22;16852;51.446;6.528;2023-02-15T06:07:26;4.60;99.90
27858;DHT22;16852;51.446;6.528;2023-02-15T06:09:27;4.60;99.90
27858;DHT22;16852;51.446;6.528;2023-02-15T06:11:27;4.60;99.90
27858;DHT22;16852;51.446;6.528;2023-02-15T06:13:28;4.60;99.90
27858;DHT22;16852;51.446;6.528;2023-02-15T06:15:29;4.60;99.90
27858;DHT22;16852;51.446;6.528;2023-02-15T06:17:29;4.60;99.90
27858;DHT22;16852;51.446;6.528;2023-02-15T06:19:30;4.60;99.90
27858;DHT22;16852;51.446;6.528;2023-02-15T06:21:31;4.60;99.90
27858;DHT22;16852;51.446;6.528;2023-02-15T06:23:31;4.60;99.90
27858;DHT22;16852;51.446;6.528;2023-02-15T06:25:32;4.50;99.90
27858;DHT22;16852;51.446;6.528;2023-02-15T06:27:32;4.50;99.90
27858;DHT22;16852;51.446;6.528;2023-02-15T06:29:33;4.50;99.90
27858;DHT22;16852;51.446;6.528;2023-02-15T06:31:33;4.50;99.90
27858;DHT22;16852;51.446;6.528;2023-02-15T06:33:34;4.60;99.90
27858;DHT22;16852;51.446;6.528;2023-02-15T06:35:35;4.60;99.90
27858;DHT22;16852;51.446;6.528;2023-02-15T06:37:35;4.50;99.90
27858;DHT22;16852;51.446;6.528;2023-02-15T06:39:36;4.60;99.90
27858;DHT22;16852;51.446;6.528;2023-02-15T06:41:36;4.60;99.90
27858;DHT22;16852;51.446;6.528;2023-02-15T06:43:37;4.50;99.90
27858;DHT22;16852;51.446;6.528;2023-02-15T06:45:37;4.50;99.90
27858;DHT22;16852;51.446;6.528;2023-02-15T06:47:38;4.50;99.90
27858;DHT22;16852;51.446;6.528;2023-02-15T06:49:38;4.40;99.90
27858;DHT22;16852;51.446;6.528;2023-02-15T06:51:39;4.50;99.90
27858;DHT22;16852;51.446;6.528;2023-02-15T06:53:40;4.50;99.90
27858;DHT22;16852;51.446;6.528;2023-02-15T06:55:43;4.40;99.90
27858;DHT22;16852;51.446;6.528;2023-02-15T06:57:43;4.40;99.90
27858;DHT22;16852;51.446;6.528;2023-02-15T06:59:44;4.40;99.90
27858;DHT22;16852;51.446;6.528;2023-02-15T07:01:44;4.30;99.90
27858;DHT22;16852;51.446;6.528;2023-02-15T07:03:45;4.30;99.90
27858;DHT22;16852;51.446;6.528;2023-02-15T07:05:45;4.30;99.90
27858;DHT22;16852;51.446;6.528;2023-02-15T07:07:48;4.20;99.90
27858;DHT22;16852;51.446;6.528;2023-02-15T07:09:48;4.20;99.90
27858;DHT22;16852;51.446;6.528;2023-02-15T07:11:49;4.20;99.90
27858;DHT22;16852;51.446;6.528;2023-02-15T07:14:08;4.20;99.90
27858;DHT22;16852;51.446;6.528;2023-02-15T07:16:09;4.20;99.90
27858;DHT22;16852;51.446;6.528;2023-02-15T07:18:10;4.20;99.90
27858;DHT22;16852;51.446;6.528;2023-02-15T07:20:13;4.20;99.90
27858;DHT22;16852;51.446;6.528;2023-02-15T07:22:14;4.20;99.90
27858;DHT22;16852;51.446;6.528;2023-02-15T07:24:15;4.30;99.90
27858;DHT22;16852;51.446;6.528;2023-02-15T07:26:15;4.20;99.90
27858;DHT22;16852;51.446;6.528;2023-02-15T07:28:16;4.20;99.90
27858;DHT22;16852;51.446;6.528;2023-02-15T07:30:17;4.20;99.90
27858;DHT22;16852;51.446;6.528;2023-02-15T07:32:17;4.20;99.90
27858;DHT22;16852;51.446;6.528;2023-02-15T07:34:18;4.30;99.90
27858;DHT22;16852;51.446;6.528;2023-02-15T07:36:18;4.30;99.90
27858;DHT22;16852;51.446;6.528;2023-02-15T07:38:19;4.30;99.90
27858;DHT22;16852;51.446;6.528;2023-02-15T07:40:20;4.30;99.90
27858;DHT22;16852;51.446;6.528;2023-02-15T07:42:23;4.30;99.90
27858;DHT22;16852;51.446;6.528;2023-02-15T07:44:24;4.30;99.90
27858;DHT22;16852;51.446;6.528;2023-02-15T07:46:24;4.40;99.90
27858;DHT22;16852;51.446;6.528;2023-02-15T07:48:25;4.40;99.90
27858;DHT22;16852;51.446;6.528;2023-02-15T07:50:26;4.40;99.90
27858;DHT22;16852;51.446;6.528;2023-02-15T07:52:26;4.50;99.90
27858;DHT22;16852;51.446;6.528;2023-02-15T07:54:27;4.70;99.90
27858;DHT22;16852;51.446;6.528;2023-02-15T07:56:28;4.90;99.90
27858;DHT22;16852;51.446;6.528;2023-02-15T07:58:29;5.10;99.90
27858;DHT22;16852;51.446;6.528;2023-02-15T08:00:48;5.40;99.90
27858;DHT22;16852;51.446;6.528;2023-02-15T08:02:58;5.70;99.90
27858;DHT22;16852;51.446;6.528;2023-02-15T08:05:14;6.00;99.90
27858;DHT22;16852;51.446;6.528;2023-02-15T08:07:14;6.30;99.90
27858;DHT22;16852;51.446;6.528;2023-02-15T08:09:15;6.50;99.90
27858;DHT22;16852;51.446;6.528;2023-02-15T08:11:23;6.60;99.90
27858;DHT22;16852;51.446;6.528;2023-02-15T08:13:33;6.80;99.90
27858;DHT22;16852;51.446;6.528;2023-02-15T08:15:34;7.00;99.90
27858;DHT22;16852;51.446;6.528;2023-02-15T08:17:36;7.20;99.90
27858;DHT22;16852;51.446;6.528;2023-02-15T08:19:37;7.50;99.90
27858;DHT22;16852;51.446;6.528;2023-02-15T08:21:40;7.80;99.90
27858;DHT22;16852;51.446;6.528;2023-02-15T08:23:41;7.90;99.90
27858;DHT22;16852;51.446;6.528;2023-02-15T08:25:42;8.20;99.90
27858;DHT22;16852;51.446;6.528;2023-02-15T08:27:42;8.40;99.90
27858;DHT22;16852;51.446;6.528;2023-02-15T08:29:43;8.50;99.90
27858;DHT22;16852;51.446;6.528;2023-02-15T08:31:44;8.70;99.90
27858;DHT22;16852;51.446;6.528;2023-02-15T08:33:46;8.90;99.90
27858;DHT22;16852;51.446;6.528;2023-02-15T08:35:47;9.20;99.90
27858;DHT22;16852;51.446;6.528;2023-02-15T08:37:48;9.20;99.90
27858;DHT22;16852;51.446;6.528;2023-02-15T08:39:49;9.50;99.90
27858;DHT22;16852;51.446;6.528;2023-02-15T08:41:50;9.70;99.90
27858;DHT22;16852;51.446;6.528;2023-02-15T08:43:55;9.90;99.90
27858;DHT22;16852;51.446;6.528;2023-02-15T08:45:56;10.00;99.90
27858;DHT22;16852;51.446;6.528;2023-02-15T08:47:57;10.10;99.90
27858;DHT22;16852;51.446;6.528;2023-02-15T08:49:57;10.40;99.90
27858;DHT22;16852;51.446;6.528;2023-02-15T08:51:58;10.50;99.90
27858;DHT22;16852;51.446;6.528;2023-02-15T08:54:03;10.70;99.90
27858;DHT22;16852;51.446;6.528;2023-02-15T08:56:03;10.90;99.90
27858;DHT22;16852;51.446;6.528;2023-02-15T08:58:04;11.00;99.90
27858;DHT22;16852;51.446;6.528;2023-02-15T09:00:05;10.90;99.90
27858;DHT22;16852;51.446;6.528;2023-02-15T09:02:09;10.90;99.90
27858;DHT22;16852;51.446;6.528;2023-02-15T09:04:10;10.80;99.90
27858;DHT22;16852;51.446;6.528;2023-02-15T09:06:13;10.90;99.90
27858;DHT22;16852;51.446;6.528;2023-02-15T09:08:14;10.90;99.90
27858;DHT22;16852;51.446;6.528;2023-02-15T09:10:14;10.90;99.90
27858;DHT22;16852;51.446;6.528;2023-02-15T09:12:15;10.90;99.90
27858;DHT22;16852;51.446;6.528;2023-02-15T09:14:18;11.10;99.90
27858;DHT22;16852;51.446;6.528;2023-02-15T09:16:21;11.00;99.90
27858;DHT22;16852;51.446;6.528;2023-02-15T09:18:22;10.90;99.90
27858;DHT22;16852;51.446;6.528;2023-02-15T09:20:22;10.90;99.90
27858;DHT22;16852;51.446;6.528;2023-02-15T09:22:24;10.90;99.90
27858;DHT22;16852;51.446;6.528;2023-02-15T09:24:24;10.80;99.90
27858;DHT22;16852;51.446;6.528;2023-02-15T09:26:27;10.70;99.90
27858;DHT22;16852;51.446;6.528;2023-02-15T09:28:28;10.80;99.90
27858;DHT22;16852;51.446;6.528;2023-02-15T09:30:29;10.60;99.90
27858;DHT22;16852;51.446;6.528;2023-02-15T09:32:29;10.40;99.90
27858;DHT22;16852;51.446;6.528;2023-02-15T09:34:30;10.40;99.90
27858;DHT22;16852;51.446;6.528;2023-02-15T09:36:35;10.40;99.90
27858;DHT22;16852;51.446;6.528;2023-02-15T09:38:36;10.50;99.90
27858;DHT22;16852;51.446;6.528;2023-02-15T09:40:41;10.40;99.90
27858;DHT22;16852;51.446;6.528;2023-02-15T09:51:45;10.30;99.90
27858;DHT22;16852;51.446;6.528;2023-02-15T09:54:03;10.30;99.90
27858;DHT22;16852;51.446;6.528;2023-02-15T10:03:39;10.20;99.90
27858;DHT22;16852;51.446;6.528;2023-02-15T10:10:33;10.00;99.90
27858;DHT22;16852;51.446;6.528;2023-02-15T10:17:46;10.10;99.90
27858;DHT22;16852;51.446;6.528;2023-02-15T10:22:40;10.20;99.90
27858;DHT22;16852;51.446;6.528;2023-02-15T10:24:59;10.20;99.90
27858;DHT22;16852;51.446;6.528;2023-02-15T10:27:11;10.20;99.90
27858;DHT22;16852;51.446;6.528;2023-02-15T10:31:51;10.30;99.90
27858;DHT22;16852;51.446;6.528;2023-02-15T10:36:04;10.30;99.90
27858;DHT22;16852;51.446;6.528;2023-02-15T10:38:52;10.30;99.90
27858;DHT22;16852;51.446;6.528;2023-02-15T10:43:52;10.30;99.90
27858;DHT22;16852;51.446;6.528;2023-02-15T10:48:24;10.30;99.90
27858;DHT22;16852;51.446;6.528;2023-02-15T10:57:50;10.40;99.90
27858;DHT22;16852;51.446;6.528;2023-02-15T11:00:23;10.40;99.90
27858;DHT22;16852;51.446;6.528;2023-02-15T11:07:20;10.60;99.90
27858;DHT22;16852;51.446;6.528;2023-02-15T11:09:25;10.70;99.90
27858;DHT22;16852;51.446;6.528;2023-02-15T11:11:32;10.70;99.90
27858;DHT22;16852;51.446;6.528;2023-02-15T11:13:39;10.80;99.90
27858;DHT22;16852;51.446;6.528;2023-02-15T11:15:44;10.80;99.90
27858;DHT22;16852;51.446;6.528;2023-02-15T11:18:01;10.80;99.90
27858;DHT22;16852;51.446;6.528;2023-02-15T11:22:33;10.70;99.90
27858;DHT22;16852;51.446;6.528;2023-02-15T11:24:40;10.80;99.90
27858;DHT22;16852;51.446;6.528;2023-02-15T11:26:44;10.80;99.90
27858;DHT22;16852;51.446;6.528;2023-02-15T11:28:52;10.90;99.90
27858;DHT22;16852;51.446;6.528;2023-02-15T11:30:56;10.90;99.90
27858;DHT22;16852;51.446;6.528;2023-02-15T11:33:00;10.90;99.90
27858;DHT22;16852;51.446;6.528;2023-02-15T11:35:20;10.90;99.90
27858;DHT22;16852;51.446;6.528;2023-02-15T11:37:35;10.90;99.90
27858;DHT22;16852;51.446;6.528;2023-02-15T11:39:37;10.90;99.90
27858;DHT22;16852;51.446;6.528;2023-02-15T11:41:43;10.90;99.90
27858;DHT22;16852;51.446;6.528;2023-02-15T11:43:49;11.00;99.90
27858;DHT22;16852;51.446;6.528;2023-02-15T11:45:51;11.00;99.90
27858;DHT22;16852;51.446;6.528;2023-02-15T11:47:53;11.10;99.90
27858;DHT22;16852;51.446;6.528;2023-02-15T11:49:53;11.10;99.90
27858;DHT22;16852;51.446;6.528;2023-02-15T11:51:56;11.10;99.90
27858;DHT22;16852;51.446;6.528;2023-02-15T11:53:57;11.20;99.90
27858;DHT22;16852;51.446;6.528;2023-02-15T11:55:57;11.20;99.90
27858;DHT22;16852;51.446;6.528;2023-02-15T11:58:50;11.20;99.90
27858;DHT22;16852;51.446;6.528;2023-02-15T12:00:36;11.20;99.90
27858;DHT22;16852;51.446;6.528;2023-02-15T12:02:38;11.30;99.90
27858;DHT22;16852;51.446;6.528;2023-02-15T12:04:44;11.30;99.90
27858;DHT22;16852;51.446;6.528;2023-02-15T12:07:11;11.30;99.90
27858;DHT22;16852;51.446;6.528;2023-02-15T12:09:25;11.30;99.90
27858;DHT22;16852;51.446;6.528;2023-02-15T12:11:39;11.30;99.90
27858;DHT22;16852;51.446;6.528;2023-02-15T12:13:55;11.30;99.90
27858;DHT22;16852;51.446;6.528;2023-02-15T12:15:57;11.40;99.90
27858;DHT22;16852;51.446;6.528;2023-02-15T12:17:59;11.40;99.90
27858;DHT22;16852;51.446;6.528;2023-02-15T12:20:02;11.40;99.90
27858;DHT22;16852;51.446;6.528;2023-02-15T12:22:04;11.40;99.90
27858;DHT22;16852;51.446;6.528;2023-02-15T12:26:34;11.60;99.90
27858;DHT22;16852;51.446;6.528;2023-02-15T12:28:38;11.60;99.90
27858;DHT22;16852;51.446;6.528;2023-02-15T12:30:42;11.70;99.90
27858;DHT22;16852;51.446;6.528;2023-02-15T12:33:14;11.80;99.90
27858;DHT22;16852;51.446;6.528;2023-02-15T12:35:35;11.80;99.90
27858;DHT22;16852;51.446;6.528;2023-02-15T12:37:37;11.90;99.90
27858;DHT22;16852;51.446;6.528;2023-02-15T12:39:51;11.90;99.90
27858;DHT22;16852;51.446;6.528;2023-02-15T12:46:25;12.00;99.90
27858;DHT22;16852;51.446;6.528;2023-02-15T12:48:26;12.00;99.90
27858;DHT22;16852;51.446;6.528;2023-02-15T12:50:27;12.00;99.90
27858;DHT22;16852;51.446;6.528;2023-02-15T12:52:28;12.00;99.90
27858;DHT22;16852;51.446;6.528;2023-02-15T12:56:36;12.10;99.90
27858;DHT22;16852;51.446;6.528;2023-02-15T12:58:41;12.20;99.90
27858;DHT22;16852;51.446;6.528;2023-02-15T13:00:42;12.20;99.90
27858;DHT22;16852;51.446;6.528;2023-02-15T13:02:46;12.20;99.90
27858;DHT22;16852;51.446;6.528;2023-02-15T13:04:48;12.30;99.90
27858;DHT22;16852;51.446;6.528;2023-02-15T13:06:52;12.30;99.90
27858;DHT22;16852;51.446;6.528;2023-02-15T13:09:05;12.40;99.90
27858;DHT22;16852;51.446;6.528;2023-02-15T13:11:10;12.50;99.90
27858;DHT22;16852;51.446;6.528;2023-02-15T13:13:20;12.50;99.90
27858;DHT22;16852;51.446;6.528;2023-02-15T13:15:28;12.50;99.90
27858;DHT22;16852;51.446;6.528;2023-02-15T13:17:32;12.60;99.90
27858;DHT22;16852;51.446;6.528;2023-02-15T13:19:41;12.60;99.90
27858;DHT22;16852;51.446;6.528;2023-02-15T13:21:53;12.60;99.90
27858;DHT22;16852;51.446;6.528;2023-02-15T13:24:01;12.70;99.90
27858;DHT22;16852;51.446;6.528;2023-02-15T13:26:05;12.70;99.90
27858;DHT22;16852;51.446;6.528;2023-02-15T13:28:13;12.70;99.90
27858;DHT22;16852;51.446;6.528;2023-02-15T13:30:27;12.70;99.90
27858;DHT22;16852;51.446;6.528;2023-02-15T13:32:34;12.80;99.90
27858;DHT22;16852;51.446;6.528;2023-02-15T13:34:38;12.80;99.90
27858;DHT22;16852;51.446;6.528;2023-02-15T13:37:02;12.90;99.90
27858;DHT22;16852;51.446;6.528;2023-02-15T13:41:35;12.90;99.90
27858;DHT22;16852;51.446;6.528;2023-02-15T13:43:59;12.90;99.90
27858;DHT22;16852;51.446;6.528;2023-02-15T13:46:17;13.00;99.90
27858;DHT22;16852;51.446;6.528;2023-02-15T13:48:49;13.00;99.90
27858;DHT22;16852;51.446;6.528;2023-02-15T13:51:19;13.10;99.90
27858;DHT22;16852;51.446;6.528;2023-02-15T13:53:22;13.10;99.90
27858;DHT22;16852;51.446;6.528;2023-02-15T14:00:24;13.20;99.90
27858;DHT22;16852;51.446;6.528;2023-02-15T14:07:45;13.30;99.90
27858;DHT22;16852;51.446;6.528;2023-02-15T14:10:23;13.30;99.80
27858;DHT22;16852;51.446;6.528;2023-02-15T14:15:32;13.30;99.60
27858;DHT22;16852;51.446;6.528;2023-02-15T14:17:55;13.30;99.90
27858;DHT22;16852;51.446;6.528;2023-02-15T14:24:27;13.30;99.90
27858;DHT22;16852;51.446;6.528;2023-02-15T14:30:51;13.30;99.90
27858;DHT22;16852;51.446;6.528;2023-02-15T14:32:56;13.30;99.20
27858;DHT22;16852;51.446;6.528;2023-02-15T14:35:00;13.30;99.50
27858;DHT22;16852;51.446;6.528;2023-02-15T14:37:01;13.30;99.90
27858;DHT22;16852;51.446;6.528;2023-02-15T14:41:44;13.30;99.70
27858;DHT22;16852;51.446;6.528;2023-02-15T14:48:54;13.30;99.90
27858;DHT22;16852;51.446;6.528;2023-02-15T14:50:55;13.30;99.90
27858;DHT22;16852;51.446;6.528;2023-02-15T14:55:36;13.30;99.90
27858;DHT22;16852;51.446;6.528;2023-02-15T14:57:37;13.30;99.90
27858;DHT22;16852;51.446;6.528;2023-02-15T14:59:39;13.30;99.90
27858;DHT22;16852;51.446;6.528;2023-02-15T15:01:42;13.30;99.90
27858;DHT22;16852;51.446;6.528;2023-02-15T15:03:50;13.30;99.90
27858;DHT22;16852;51.446;6.528;2023-02-15T15:05:54;13.30;99.90
27858;DHT22;16852;51.446;6.528;2023-02-15T15:07:58;13.30;99.90
27858;DHT22;16852;51.446;6.528;2023-02-15T15:10:04;13.30;99.90
27858;DHT22;16852;51.446;6.528;2023-02-15T15:18:45;13.30;99.90
27858;DHT22;16852;51.446;6.528;2023-02-15T15:20:50;13.30;99.90
27858;DHT22;16852;51.446;6.528;2023-02-15T15:27:52;13.20;99.90
27858;DHT22;16852;51.446;6.528;2023-02-15T15:29:54;13.20;99.90
27858;DHT22;16852;51.446;6.528;2023-02-15T15:31:56;13.20;99.90